Kapaau, Hawaii
Current Conditions -  °F | °C
As of 9:56 AM on Saturday 25 Oct 2014 (Local Time) from PHSF Reporting Station
Clear Clear  
Wind Chill: 65°   Ceiling: Unl
Heat Index: 65°   Visibility: 10mi
Dew Point: 54°   Wind: 17mph
Humidity: 67%   Direction: 160°SSE
Pressure: 30.37"   Gusts: 25mph
Location:  20.22°N, 155.79°W
Report Text: PHSF 251956Z AUTO 16015G22KT 10SM CLR 18/12 A3037 RMK AO2 SLP176 T01820120 $
Loading
Personal Weather Stations






























Interactive Weather Map
Tropical Storm Tracking
New forecast layout! Learn more

10-Day Weather Forecast

Advertisements
Track Severe Weather on mobile